WetterOnline ( https://www.wetteronline.de )

Wetter aktuell Stuttgart

Aktuelles Wetter: Schnarrenberg/Stuttgart (315m)

6-stündlich | Neueste Meldungen
Ortszeit Temperatur Wetter
Di, 22.06. 14:00 18.1° C leichter Regen
Di, 22.06. 8:00 17.5° C bedeckt
Di, 22.06. 2:00 17.8° C bedeckt
Mo, 21.06. 20:00 24.2° C bedeckt
Mo, 21.06. 14:00 25.5° C wolkig
Mo, 21.06. 8:00 19.2° C fast wolkenlos
Mo, 21.06. 2:00 16.6° C bedeckt
So, 20.06. 20:00 26.2° C wolkig
Ortszeit Temperatur Wetter
Di, 22.06. 14:00 18.1° C leichter Regen
Di, 22.06. 13:50 18.1° C leichter Regen
Di, 22.06. 13:40 18.3° C leichter Regen
Di, 22.06. 13:30 18.6° C leichter Regen
Di, 22.06. 13:20 18.6° C leichter Regen
Di, 22.06. 13:10 18.9° C bedeckt
Di, 22.06. 13:00 19.1° C leichter Regen
Di, 22.06. 12:30 18.9° C bedeckt
Di, 22.06. 12:00 18.6° C leichter Regen
Di, 22.06. 11:30 18.5° C leichter Regen
Di, 22.06. 11:00 18.7° C leichter Regen
Di, 22.06. 10:30 19.1° C bewölkt
Ortszeit Relative Feuchte Sichtweite
Di, 22.06. 14:00 86% 26 km
Di, 22.06. 8:00 92% 20 km
Di, 22.06. 2:00 93% 35 km
Mo, 21.06. 20:00 51% >70 km
Mo, 21.06. 14:00 48% >70 km
Mo, 21.06. 8:00 72% >70 km
Mo, 21.06. 2:00 93% 50 km
So, 20.06. 20:00 56% 30 km
Ortszeit Relative Feuchte Sichtweite
Di, 22.06. 14:00 86% 26 km
Di, 22.06. 13:50 86% -
Di, 22.06. 13:40 87% -
Di, 22.06. 13:30 83% 15 km
Di, 22.06. 13:20 83% -
Di, 22.06. 13:10 81% -
Di, 22.06. 13:00 80% 45 km
Di, 22.06. 12:30 83% 35 km
Di, 22.06. 12:00 86% 20 km
Di, 22.06. 11:30 86% 28 km
Di, 22.06. 11:00 85% 17 km
Di, 22.06. 10:30 81% 35 km
Ortszeit Niederschlagsmenge Niederschlagsart
Di, 22.06. 14:00 0.7 l/m2 in 6 Std. Regen
Di, 22.06. 8:00 3 l/m2 in 12 Std. Regen
Di, 22.06. 2:00 3 l/m2 in 6 Std. Regen
Mo, 21.06. 20:00 0.0 l/m2 in 12 Std. -
Mo, 21.06. 14:00 0.0 l/m2 in 6 Std. -
Mo, 21.06. 8:00 8 l/m2 in 12 Std. Regen
Mo, 21.06. 2:00 8 l/m2 in 6 Std. Regen
So, 20.06. 20:00 0.1 l/m2 in 12 Std. Regen
Ortszeit Niederschlagsmenge Niederschlagsart
Di, 22.06. 14:00 0.2 l/m2 in 1 Std. Regen
Di, 22.06. 13:50 keine Meldung -
Di, 22.06. 13:40 keine Meldung -
Di, 22.06. 13:30 0.1 l/m2 in 1 Std. -
Di, 22.06. 13:20 keine Meldung -
Di, 22.06. 13:10 keine Meldung -
Di, 22.06. 13:00 0.1 l/m2 in 1 Std. -
Di, 22.06. 12:30 0.1 l/m2 in 1 Std. -
Di, 22.06. 12:00 0.3 l/m2 in 1 Std. Regen
Di, 22.06. 11:30 0.3 l/m2 in 1 Std. -
Di, 22.06. 11:00 0.2 l/m2 in 1 Std. Regen
Di, 22.06. 10:30 0.0 l/m2 in 1 Std. -
Ortszeit Stärke Spitze Richtung
km/h Bft. km/h Grad Sektor
Di, 22.06. 14:00 14 3 25 310° NW
Di, 22.06. 8:00 2 1 15 340° N
Di, 22.06. 2:00 4 1 22 360° N
Mo, 21.06. 20:00 11 2 24 350° N
Mo, 21.06. 14:00 7 2 22 40° NO
Mo, 21.06. 8:00 9 2 22 210° SW
Mo, 21.06. 2:00 7 2 61 160° S
So, 20.06. 20:00 6 1 24 30° NO
Ortszeit Stärke Spitze Richtung
km/h Bft. km/h Grad Sektor
Di, 22.06. 14:00 14 3 25 310° NW
Di, 22.06. 13:50 14 3 - 310° NW
Di, 22.06. 13:40 13 3 - 310° NW
Di, 22.06. 13:30 13 3 20 310° NW
Di, 22.06. 13:20 13 3 - 310° NW
Di, 22.06. 13:10 13 3 - 310° NW
Di, 22.06. 13:00 11 2 - 320° NW
Di, 22.06. 12:30 - - - - -
Di, 22.06. 12:00 - - - - -
Di, 22.06. 11:30 - - - - -
Di, 22.06. 11:00 - - - - -
Di, 22.06. 10:30 - - - - -
Ortszeit Untergrenze Bedeckung Gattung
total tief tief mittel hoch
Di, 22.06. 14:00 330 m 7/8 7/8 - - -
Di, 22.06. 8:00 150 m 8/8 8/8 - - -
Di, 22.06. 2:00 3300 m 8/8 8/8 - - -
Mo, 21.06. 20:00 3900 m 8/8 8/8 - - -
Mo, 21.06. 14:00 1410 m 7/8 4/8 - - -
Mo, 21.06. 8:00 3300 m 1/8 1/8 - - -
Mo, 21.06. 2:00 3300 m 8/8 8/8 - - -
So, 20.06. 20:00 2100 m 8/8 1/8 - - -
Ortszeit Bedeckungsgrad in Achtel und Wolkenuntergrenze
Di, 22.06. 14:00 1(330m) 7(1500m)
Di, 22.06. 13:50 1(330m) 2(810m) 7(1500m)
Di, 22.06. 13:40 1(330m) 3(1260m) 8(1800m)
Di, 22.06. 13:30 2(630m) 4(1500m) 8(1800m)
Di, 22.06. 13:20 2(630m) 4(1500m) 8(1800m)
Di, 22.06. 13:10 1(510m) 7(1800m) 8(2100m)
Di, 22.06. 13:00 1(450m) 3(1500m) 8(2400m)
Di, 22.06. 12:30 1(300m) 8(2400m) 8(2400m)
Di, 22.06. 12:00 3(270m) 3(1800m) 8(2700m)
Di, 22.06. 11:30 1(930m) 5(2100m) 8(3000m)
Di, 22.06. 11:00 7(2700m) 7(3600m) 7(4500m)
Di, 22.06. 10:30 5(330m) 6(540m) 8(3000m)
Ortszeit Luftdruck NN (hPa) Tendenz (hPa in 3 Std.)
Di, 22.06. 14:00 1013 + 0,9
Di, 22.06. 8:00 1011 + 0,2
Di, 22.06. 2:00 1011 + 0,5
Mo, 21.06. 20:00 1007 - 0,1
Mo, 21.06. 14:00 1008 - 0,1
Mo, 21.06. 8:00 1009 + 0,7
Mo, 21.06. 2:00 1008 - 0,1
So, 20.06. 20:00 1006 - 1,1
Ortszeit Luftdruck NN (hPa) Tendenz (hPa in 3 Std.)
Di, 22.06. 14:00 1013 + 0,9
Di, 22.06. 13:50 1013 keine Meldung
Di, 22.06. 13:40 1013 keine Meldung
Di, 22.06. 13:30 1013 + 1,0
Di, 22.06. 13:20 1013 keine Meldung
Di, 22.06. 13:10 1013 keine Meldung
Di, 22.06. 13:00 1013 + 1,0
Di, 22.06. 12:30 1012 + 0,7
Di, 22.06. 12:00 1013 + 1,0
Di, 22.06. 11:30 1012 + 0,9
Di, 22.06. 11:00 1012 + 0,8
Di, 22.06. 10:30 1012 + 1,1
Ortszeit Schneehöhe (cm)
Di, 22.06. 14:00 -
Di, 22.06. 8:00 -
Di, 22.06. 2:00 -
Mo, 21.06. 20:00 -
Mo, 21.06. 14:00 -
Mo, 21.06. 8:00 -
Mo, 21.06. 2:00 -
So, 20.06. 20:00 -
Ortszeit Schneehöhe (cm)
Di, 22.06. 14:00 -
Di, 22.06. 13:50 -
Di, 22.06. 13:40 -
Di, 22.06. 13:30 -
Di, 22.06. 13:20 -
Di, 22.06. 13:10 -
Di, 22.06. 13:00 -
Di, 22.06. 12:30 -
Di, 22.06. 12:00 -
Di, 22.06. 11:30 -
Di, 22.06. 11:00 -
Di, 22.06. 10:30 -
Link zu dieser Seite / Seite empfehlen

Das Wetter in ...